»·PEaware :: N1927H KVGT-KDTA

N1927H :: KVGT-KDTA

FLIGHT INFORMATION

Flight Status: Arrived
Operator: Privately registered:
United States
More flights under this callsign
Pilot: Wayne R. (17783)
Aircraft: PIPER PA-28R-201 ARROW
(P28R)
More flights by this aircraft type
Origin: KVGT North Las Vegas
United States
Destination: KDTA Delta Mun
United States
More flights between these airports :: More routes between these airports
Route: +
File this flight plan on PilotEdge
Remarks:
Altitude:
(Current/Filed)
4,500ft
Speed:
(Current/Filed)
135kts
Departed: 28-Feb-20 05:33 PM
Arrived: 28-Feb-20 07:23 PM
Distance/Time
Traveled:
229nm/1:49
Distance/Time
To Go:
Arrived

Flight Plot

Page will automatically refresh every two minutes.

Flight plan parsing failed; only flown route is shown


Map Options




Map Legend


Flown Route
Filed Route
Departure Airport
Arrival Airport
Navaid (VOR, NDB)
Fix

Horizontal Profiles

Position Reports

Time Latitude Longitude Heading Altitude Ground
Speed
28-Feb-20 17:20 36.209761 -115.186539 170 2166ft 0kts
28-Feb-20 17:22 36.209761 -115.186539 170 2166ft 0kts
28-Feb-20 17:22 36.209761 -115.186539 170 2166ft 0kts
28-Feb-20 17:23 36.209761 -115.186539 170 2166ft 0kts
28-Feb-20 17:25 36.209761 -115.186539 170 2166ft 0kts
28-Feb-20 17:25 36.208302 -115.187246 286 2163ft 17kts
28-Feb-20 17:26 36.207658 -115.187600 220 2163ft 7kts
28-Feb-20 17:27 36.207642 -115.187617 221 2163ft 0kts
28-Feb-20 17:28 36.206200 -115.189297 223 2164ft 16kts
28-Feb-20 17:29 36.209983 -115.194969 318 2187ft 25kts
28-Feb-20 17:30 36.211131 -115.196922 240 2193ft 0kts
28-Feb-20 17:31 36.211098 -115.196993 240 2193ft 7kts
28-Feb-20 17:32 36.203321 -115.184824 86 2366ft 85kts
28-Feb-20 17:33 36.224208 -115.168700 6 2883ft 103kts
28-Feb-20 17:34 36.253134 -115.163609 6 3335ft 106kts
28-Feb-20 17:35 36.282360 -115.161030 349 3794ft 104kts
28-Feb-20 17:36 36.308329 -115.174330 330 4361ft 98kts
28-Feb-20 17:37 36.334823 -115.194633 326 4406ft 119kts
28-Feb-20 17:38 36.356456 -115.224439 310 4568ft 111kts
28-Feb-20 17:39 36.375675 -115.252468 310 4996ft 103kts
28-Feb-20 17:40 36.393883 -115.279283 310 5444ft 100kts
28-Feb-20 17:41 36.411812 -115.305526 320 5887ft 99kts
28-Feb-20 17:42 36.433869 -115.325850 324 6337ft 97kts
28-Feb-20 17:43 36.455361 -115.345819 324 6786ft 96kts
28-Feb-20 17:44 36.476573 -115.365931 324 7237ft 95kts
28-Feb-20 17:45 36.497339 -115.385937 324 7686ft 94kts
28-Feb-20 17:46 36.521863 -115.390170 355 8119ft 89kts
28-Feb-20 17:47 36.546343 -115.392943 354 8567ft 87kts
28-Feb-20 17:48 36.570265 -115.393603 4 9008ft 85kts
28-Feb-20 17:49 36.593366 -115.390018 4 9452ft 82kts
28-Feb-20 17:50 36.617824 -115.384991 27 9611ft 103kts
28-Feb-20 17:51 36.638667 -115.361813 36 9920ft 98kts
28-Feb-20 17:52 36.658397 -115.338685 36 10213ft 97kts
28-Feb-20 17:53 36.679136 -115.317842 29 10510ft 95kts
28-Feb-20 17:54 36.700270 -115.298151 31 10802ft 95kts
28-Feb-20 17:55 36.722701 -115.275869 31 11058ft 108kts
28-Feb-20 17:56 36.745667 -115.252866 31 11498ft 104kts
28-Feb-20 17:57 36.770657 -115.228064 32 11544ft 126kts
28-Feb-20 17:58 36.799154 -115.200799 32 11542ft 130kts
28-Feb-20 17:59 36.828125 -115.172930 31 11541ft 132kts
28-Feb-20 18:00 36.854445 -115.140511 58 11539ft 141kts
28-Feb-20 18:01 36.873078 -115.093830 58 11246ft 156kts
28-Feb-20 18:02 36.893633 -115.045183 58 10947ft 159kts
28-Feb-20 18:03 36.915385 -115.000686 58 10675ft 160kts
28-Feb-20 18:04 36.939797 -114.954363 58 10385ft 158kts
28-Feb-20 18:05 36.965578 -114.910093 50 10095ft 157kts
28-Feb-20 18:06 36.994670 -114.869100 50 9803ft 157kts
28-Feb-20 18:07 37.023623 -114.828231 50 9513ft 156kts
28-Feb-20 18:08 37.051467 -114.788909 50 9504ft 148kts
28-Feb-20 18:09 37.077173 -114.748569 50 9495ft 148kts
28-Feb-20 18:10 37.102185 -114.707463 50 9496ft 148kts
28-Feb-20 18:11 37.127301 -114.666425 48 9504ft 147kts
28-Feb-20 18:12 37.153782 -114.627579 47 9511ft 148kts
28-Feb-20 18:13 37.181065 -114.588286 44 9519ft 148kts
28-Feb-20 18:14 37.209435 -114.550175 45 9525ft 149kts
28-Feb-20 18:15 37.237876 -114.512438 45 9533ft 149kts
28-Feb-20 18:16 37.266554 -114.474851 45 9540ft 149kts
28-Feb-20 18:17 37.295415 -114.437250 45 9540ft 149kts
28-Feb-20 18:18 37.324388 -114.399527 45 9541ft 149kts
28-Feb-20 18:19 37.353400 -114.361729 44 9541ft 149kts
28-Feb-20 18:20 37.382417 -114.323938 45 9539ft 149kts
28-Feb-20 18:21 37.411314 -114.286239 45 9540ft 149kts
28-Feb-20 18:22 37.440207 -114.248551 45 9540ft 149kts
28-Feb-20 18:23 37.469191 -114.211152 45 9540ft 149kts
28-Feb-20 18:24 37.498252 -114.173469 45 9540ft 149kts
28-Feb-20 18:25 37.528819 -114.137371 40 9540ft 149kts
28-Feb-20 18:26 37.560041 -114.102968 40 9542ft 149kts
28-Feb-20 18:27 37.591350 -114.068445 40 9540ft 149kts
28-Feb-20 18:28 37.622570 -114.034008 40 9540ft 149kts
28-Feb-20 18:29 37.656317 -114.003638 32 9540ft 149kts
28-Feb-20 18:30 37.690948 -113.974615 32 9542ft 149kts
28-Feb-20 18:31 37.725570 -113.945872 32 9547ft 149kts
28-Feb-20 18:32 37.760513 -113.917382 32 9553ft 149kts
28-Feb-20 18:33 37.795698 -113.889491 32 9561ft 148kts
28-Feb-20 18:34 37.830915 -113.862368 32 9568ft 147kts
28-Feb-20 18:35 37.865139 -113.834419 32 9570ft 144kts
28-Feb-20 18:36 37.897214 -113.804328 32 9575ft 143kts
28-Feb-20 18:37 37.929127 -113.774441 32 9577ft 143kts
28-Feb-20 18:38 37.961189 -113.744401 32 9576ft 143kts
28-Feb-20 18:39 37.993199 -113.714497 32 9577ft 143kts
28-Feb-20 18:40 38.025188 -113.684570 32 9577ft 143kts
28-Feb-20 18:41 38.057240 -113.654568 32 9577ft 143kts
28-Feb-20 18:42 38.089220 -113.624626 32 9577ft 142kts
28-Feb-20 18:43 38.121970 -113.595910 32 9574ft 144kts
28-Feb-20 18:44 38.156780 -113.569353 31 9572ft 147kts
28-Feb-20 18:45 38.191793 -113.541869 31 9570ft 148kts
28-Feb-20 18:46 38.226748 -113.513684 31 9568ft 149kts
28-Feb-20 18:47 38.261882 -113.484724 32 9568ft 149kts
28-Feb-20 18:48 38.296815 -113.455856 31 9568ft 149kts
28-Feb-20 18:49 38.331416 -113.426069 33 9568ft 149kts
28-Feb-20 18:50 38.365520 -113.395761 33 9568ft 149kts
28-Feb-20 18:51 38.399770 -113.365321 33 9568ft 150kts
28-Feb-20 18:52 38.434079 -113.334838 34 9567ft 149kts
28-Feb-20 18:53 38.468308 -113.304452 34 9567ft 149kts
28-Feb-20 18:54 38.502572 -113.274033 34 9567ft 149kts
28-Feb-20 18:55 38.536769 -113.243657 34 9567ft 149kts
28-Feb-20 18:56 38.571012 -113.213232 34 9568ft 149kts
28-Feb-20 18:57 38.605224 -113.182819 34 9568ft 149kts
28-Feb-20 18:58 38.639519 -113.152317 34 9568ft 149kts
28-Feb-20 18:59 38.673759 -113.121843 34 9568ft 150kts
28-Feb-20 19:00 38.707935 -113.091401 34 9568ft 150kts
28-Feb-20 19:01 38.742358 -113.060800 34 9568ft 149kts
28-Feb-20 19:02 38.776638 -113.030277 34 9568ft 150kts
28-Feb-20 19:03 38.810808 -112.999902 34 9568ft 150kts
28-Feb-20 19:04 38.845232 -112.969398 34 9568ft 150kts
28-Feb-20 19:05 38.879660 -112.938979 34 9569ft 150kts
28-Feb-20 19:06 38.913642 -112.907553 36 9568ft 150kts
28-Feb-20 19:07 38.947422 -112.875686 36 9567ft 151kts
28-Feb-20 19:08 38.977574 -112.838325 48 9565ft 151kts
28-Feb-20 19:09 39.006365 -112.798764 48 9563ft 151kts
28-Feb-20 19:10 39.035415 -112.759297 48 9561ft 152kts
28-Feb-20 19:11 39.064472 -112.719809 47 9543ft 152kts
28-Feb-20 19:12 39.093647 -112.680066 47 9542ft 152kts
28-Feb-20 19:13 39.122737 -112.640418 47 9539ft 152kts
28-Feb-20 19:14 39.151012 -112.603930 41 9539ft 152kts
28-Feb-20 19:16 39.183237 -112.569015 40 9329ft 150kts
28-Feb-20 19:17 39.215669 -112.535787 34 9025ft 148kts
28-Feb-20 19:18 39.250821 -112.511247 19 8711ft 128kts
28-Feb-20 19:19 39.280092 -112.503147 8 8203ft 92kts
28-Feb-20 19:20 39.308490 -112.500233 355 6920ft 116kts
28-Feb-20 19:21 39.339523 -112.502736 0 5807ft 108kts
28-Feb-20 19:22 39.368676 -112.502272 0 4929ft 98kts
28-Feb-20 19:23 39.381824 -112.502280 358 4756ft 0kts
28-Feb-20 19:24 39.382275 -112.502785 143 4756ft 0kts
28-Feb-20 19:25 39.382275 -112.502785 143 4756ft 0kts
28-Feb-20 19:26 39.382275 -112.502785 143 4756ft 0kts
28-Feb-20 19:27 39.382275 -112.502785 143 4756ft 0kts
28-Feb-20 19:28 39.382275 -112.502785 143 4756ft 0kts
28-Feb-20 19:29 39.382275 -112.502785 143 4756ft 0kts

Navigation Log

Ident Type
Flight plan parsing failed, navigation log unavailable